Belmont, Idaho
Current Conditions -  °F | °C
As of 8:15 AM on Thursday 23 Oct 2014 (Local Time) from KCOE Reporting Station
Broken Clouds Broken Clouds  
Wind Chill: 52°   Ceiling: 4100
Heat Index: 52°   Visibility: 10mi
Dew Point: 46°   Wind: 9mph
Humidity: 82%   Direction: 190°S
Pressure: 29.81"   Gusts: NA
Location:  47.9325°N, 116.647°W
Report Text: KCOE 231515Z AUTO 19008KT 10SM FEW027 SCT034 BKN041 11/08 A2981 RMK AO1 P0004
Loading
Personal Weather Stations






























Interactive Weather Map
Tropical Storm Tracking
New forecast layout! Learn more

10-Day Weather Forecast

Advertisements
Track Severe Weather on mobile